Time;durP1;ratioP1;P1;durP2;ratioP2;P2;SDS_P1;SDS_P2;PMS_P1;PMS_P2;Temp;Humidity;BMP_temperature;BMP_pressure;BME280_temperature;BME280_humidity;BME280_pressure;Samples;Min_cycle;Max_cycle;Signal;HPM_P1;HPM_P2
2022/10/06 00:00:54;;;;;;;2.58;1.98;;;;;;;13.47;44.88;100789.16;5084369;28;20045;-82
2022/10/06 00:03:23;;;;;;;4.05;2.25;;;;;;;13.08;45.04;100718.13;5072581;28;20024;-83
2022/10/06 00:05:50;;;;;;;2.67;2.00;;;;;;;12.82;45.09;100738.66;5072484;28;20032;-83
2022/10/06 00:08:16;;;;;;;3.72;2.40;;;;;;;13.44;45.53;100803.56;5071323;28;20021;-83
2022/10/06 00:10:41;;;;;;;3.28;2.25;;;;;;;12.71;45.81;100705.34;5072117;28;20027;-83
2022/10/06 00:13:07;;;;;;;4.35;2.25;;;;;;;13.31;45.74;100811.16;5070627;28;20028;-82
2022/10/06 00:15:33;;;;;;;2.65;2.10;;;;;;;12.97;45.48;100759.06;5070720;28;20049;-83
2022/10/06 00:18:00;;;;;;;1.90;1.77;;;;;;;13.33;45.70;100803.88;5072155;28;20114;-82
2022/10/06 00:20:26;;;;;;;3.15;2.22;;;;;;;13.23;45.61;100793.44;5071825;28;20025;-83
2022/10/06 00:22:51;;;;;;;2.50;1.98;;;;;;;12.89;45.44;100721.94;5071701;28;20028;-83
2022/10/06 00:25:20;;;;;;;2.33;2.13;;;;;;;13.48;45.24;100804.91;5071666;28;20459;-83
2022/10/06 00:27:48;;;;;;;2.45;2.20;;;;;;;13.42;45.46;100802.09;5071734;28;20095;-83
2022/10/06 00:30:21;;;;;;;5.07;2.28;;;;;;;13.04;45.71;100762.72;5070462;28;20028;-83
2022/10/06 00:32:56;;;;;;;2.30;2.10;;;;;;;13.19;45.86;100780.66;5071908;28;20025;-83
2022/10/06 00:35:22;;;;;;;3.08;2.50;;;;;;;13.20;45.77;100775.19;5071732;28;20032;-83
2022/10/06 00:37:48;;;;;;;3.17;2.47;;;;;;;12.85;45.83;100730.38;5070207;28;20012;-82
2022/10/06 00:40:14;;;;;;;6.45;2.67;;;;;;;13.32;45.68;100792.44;5071473;28;20028;-82
2022/10/06 00:43:04;;;;;;;3.58;2.05;;;;;;;13.27;46.25;100805.38;5071582;28;20025;-83
2022/10/06 00:45:35;;;;;;;2.70;2.10;;;;;;;13.33;45.68;100804.69;5070228;28;20025;-83
2022/10/06 00:48:07;;;;;;;3.63;2.30;;;;;;;13.29;46.23;100803.38;5070985;28;20391;-83
2022/10/06 00:50:35;;;;;;;3.00;2.17;;;;;;;13.01;46.05;100754.25;5071666;28;20063;-83
2022/10/06 00:53:01;;;;;;;2.42;2.05;;;;;;;12.98;46.20;100747.47;5071514;28;20055;-83
2022/10/06 00:55:27;;;;;;;4.78;2.63;;;;;;;12.92;45.90;100742.81;5071750;28;20482;-82
2022/10/06 00:57:52;;;;;;;3.63;2.30;;;;;;;13.00;46.42;100766.69;5071209;28;20017;-83
2022/10/06 01:00:19;;;;;;;2.30;2.08;;;;;;;13.25;46.34;100796.75;5071071;28;20123;-83
2022/10/06 01:02:55;;;;;;;2.33;1.95;;;;;;;13.26;46.72;100802.88;5071428;28;20028;-83
2022/10/06 01:05:34;;;;;;;2.80;1.90;;;;;;;13.19;46.31;100789.44;5070091;28;20401;-82
2022/10/06 01:08:00;;;;;;;5.22;2.20;;;;;;;12.53;46.14;100710.75;5071382;28;20417;-83
2022/10/06 01:10:26;;;;;;;2.55;2.25;;;;;;;12.73;46.48;100725.41;5071291;28;20020;-82
2022/10/06 01:12:51;;;;;;;3.55;2.33;;;;;;;13.02;46.50;100777.13;5071155;28;20024;-82
2022/10/06 01:15:20;;;;;;;3.05;2.10;;;;;;;13.08;46.60;100783.59;5071246;28;20055;-83
2022/10/06 01:18:01;;;;;;;2.85;2.38;;;;;;;13.12;46.42;100784.94;5071174;28;20016;-82
2022/10/06 01:20:28;;;;;;;4.20;2.15;;;;;;;12.49;46.54;100687.41;5071143;28;20021;-82
2022/10/06 01:22:59;;;;;;;2.72;1.83;;;;;;;12.95;46.56;100750.44;5069952;28;20028;-82
2022/10/06 01:25:25;;;;;;;2.65;2.45;;;;;;;12.96;46.46;100767.19;5069865;28;20031;-83
2022/10/06 01:27:53;;;;;;;2.35;2.15;;;;;;;13.02;46.40;100787.72;5071095;28;20016;-83
2022/10/06 01:30:32;;;;;;;2.97;1.90;;;;;;;12.59;46.51;100707.47;5071058;28;20493;-83
2022/10/06 01:32:58;;;;;;;3.38;1.98;;;;;;;12.18;46.55;100637.69;5071084;28;20027;-83
2022/10/06 01:35:24;;;;;;;3.65;2.30;;;;;;;13.03;46.70;100786.75;5069777;28;20028;-83
2022/10/06 01:37:49;;;;;;;6.30;2.67;;;;;;;12.93;47.02;100778.94;5069673;28;20044;-83
2022/10/06 01:40:15;;;;;;;4.90;2.38;;;;;;;12.65;47.27;100757.19;5071154;28;20074;-82
2022/10/06 01:42:40;;;;;;;4.18;2.50;;;;;;;12.66;46.91;100747.41;5069776;28;20068;-83
2022/10/06 01:45:06;;;;;;;3.40;2.42;;;;;;;12.42;46.96;100708.41;5070946;28;20024;-83
2022/10/06 01:47:32;;;;;;;2.72;2.10;;;;;;;11.96;46.93;100628.50;5069575;28;20494;-83
2022/10/06 01:49:58;;;;;;;4.03;2.67;;;;;;;12.83;47.12;100770.31;5070949;28;20020;-82
2022/10/06 01:52:25;;;;;;;4.07;2.65;;;;;;;12.73;47.49;100762.50;5070796;28;20417;-83
2022/10/06 01:54:51;;;;;;;4.55;2.40;;;;;;;12.72;47.07;100757.38;5070863;28;20024;-82
2022/10/06 01:57:17;;;;;;;2.55;2.30;;;;;;;12.80;47.36;100759.19;5069603;28;20017;-83
2022/10/06 01:59:42;;;;;;;3.70;2.60;;;;;;;12.80;46.88;100765.34;5071017;28;20019;-82
2022/10/06 02:02:08;;;;;;;5.50;2.30;;;;;;;11.94;47.03;100667.53;5074486;28;20044;-83
2022/10/06 02:04:33;;;;;;;3.03;1.90;;;;;;;12.54;47.38;100738.91;5074537;28;20112;-83
2022/10/06 02:06:59;;;;;;;5.50;2.70;;;;;;;12.53;47.55;100731.94;5074565;28;20028;-82
2022/10/06 02:09:24;;;;;;;4.03;2.85;;;;;;;11.96;47.49;100654.16;5073100;28;20019;-83
2022/10/06 02:11:49;;;;;;;6.00;2.90;;;;;;;12.36;47.15;100712.53;5074837;28;20048;-82
2022/10/06 02:14:16;;;;;;;4.40;2.67;;;;;;;11.98;47.38;100642.41;5074802;28;20054;-83
2022/10/06 02:16:43;;;;;;;3.67;2.58;;;;;;;12.25;47.44;100690.81;5074539;28;20020;-82
2022/10/06 02:19:08;;;;;;;4.40;2.78;;;;;;;12.68;47.76;100756.84;5074370;28;20032;-83
2022/10/06 02:21:34;;;;;;;4.75;2.67;;;;;;;12.19;47.86;100676.41;5074187;28;20025;-82
2022/10/06 02:24:00;;;;;;;4.57;2.30;;;;;;;12.88;47.18;100789.19;5074209;28;20449;-83
2022/10/06 02:26:26;;;;;;;4.10;2.55;;;;;;;12.80;47.41;100764.50;5074085;28;20025;-83
2022/10/06 02:28:51;;;;;;;7.50;2.60;;;;;;;12.92;47.47;100787.88;5073931;28;20029;-83
2022/10/06 02:31:17;;;;;;;2.92;2.40;;;;;;;12.15;47.08;100679.53;5072742;28;20020;-83
2022/10/06 02:33:43;;;;;;;5.72;2.80;;;;;;;12.62;46.93;100746.88;5074049;28;20020;-83
2022/10/06 02:36:13;;;;;;;3.72;2.40;;;;;;;12.06;47.20;100673.38;5073994;28;20028;-83
2022/10/06 02:38:40;;;;;;;3.92;2.72;;;;;;;12.85;46.80;100778.94;5073940;28;20046;-83
2022/10/06 02:41:06;;;;;;;4.68;2.58;;;;;;;12.89;47.46;100793.50;5074246;28;20078;-83
2022/10/06 02:43:32;;;;;;;2.67;2.45;;;;;;;11.59;47.09;100572.44;5074335;28;20455;-82
2022/10/06 02:46:00;;;;;;;5.28;2.55;;;;;;;12.80;47.18;100754.72;5074269;28;20020;-83
2022/10/06 02:48:27;;;;;;;2.50;2.28;;;;;;;13.03;47.25;100815.91;5072792;28;20111;-83
2022/10/06 02:50:58;;;;;;;3.53;2.70;;;;;;;12.96;47.18;100793.69;5072594;28;20400;-82
2022/10/06 02:53:24;;;;;;;3.40;2.75;;;;;;;12.24;47.05;100687.34;5073881;28;20029;-83
2022/10/06 02:55:56;;;;;;;4.80;2.80;;;;;;;12.59;47.47;100757.78;5073697;28;20052;-82
2022/10/06 02:58:21;;;;;;;;;;;;;;;12.60;48.07;100796.53;5072822;28;20511;-82
2022/10/06 03:00:47;;;;;;;3.22;2.50;;;;;;;12.56;47.63;100778.47;5073402;28;19916;-83
2022/10/06 03:03:12;;;;;;;2.65;2.30;;;;;;;11.95;47.40;100674.50;5073596;28;20031;-82
2022/10/06 03:05:38;;;;;;;3.90;2.55;;;;;;;11.85;48.14;100665.81;5073637;28;20070;-83
2022/10/06 03:08:03;;;;;;;4.10;2.42;;;;;;;12.31;47.70;100759.03;5073519;28;20025;-83
2022/10/06 03:10:28;;;;;;;2.78;2.40;;;;;;;12.54;47.98;100781.28;5072084;28;20027;-83
2022/10/06 03:12:54;;;;;;;3.22;2.67;;;;;;;12.26;48.08;100750.72;5072934;28;20560;-83
2022/10/06 03:15:20;;;;;;;5.22;2.92;;;;;;;11.88;47.92;100675.25;5073501;28;20021;-82
2022/10/06 03:17:48;;;;;;;4.38;2.97;;;;;;;12.32;48.05;100753.56;5073591;28;20020;-83
2022/10/06 03:20:14;;;;;;;6.82;3.08;;;;;;;12.18;48.21;100717.09;5073296;28;20017;-83
2022/10/06 03:22:39;;;;;;;4.03;2.67;;;;;;;11.77;48.55;100665.75;5073593;28;20020;-82
2022/10/06 03:25:05;;;;;;;4.40;2.95;;;;;;;12.41;48.49;100779.09;5073007;28;20067;-83
2022/10/06 03:27:31;;;;;;;2.72;2.45;;;;;;;11.82;48.61;100683.84;5071495;28;20090;-82
2022/10/06 03:29:56;;;;;;;2.78;2.47;;;;;;;11.51;48.91;100631.41;5072822;28;20016;-82
2022/10/06 03:32:22;;;;;;;4.15;2.60;;;;;;;11.93;48.55;100700.28;5071448;28;20012;-83
2022/10/06 03:34:48;;;;;;;3.60;2.55;;;;;;;11.66;48.70;100672.16;5071328;28;20028;-82
2022/10/06 03:37:13;;;;;;;3.55;2.60;;;;;;;12.04;48.77;100715.91;5072787;28;20021;-83
2022/10/06 03:39:39;;;;;;;3.92;2.78;;;;;;;12.40;48.66;100760.72;5072559;28;20029;-82
2022/10/06 03:42:04;;;;;;;3.67;2.60;;;;;;;12.38;48.39;100771.47;5072558;28;20099;-82
2022/10/06 03:44:33;;;;;;;6.80;3.10;;;;;;;12.15;48.53;100721.88;5072604;28;20405;-82
2022/10/06 03:46:59;;;;;;;3.67;3.30;;;;;;;12.03;48.76;100708.13;5072428;28;20107;-82
2022/10/06 03:49:24;;;;;;;3.13;2.80;;;;;;;11.85;48.61;100662.34;5072426;28;20095;-82
2022/10/06 03:51:49;;;;;;;3.25;2.92;;;;;;;12.32;48.17;100699.78;5071059;28;20408;-82
2022/10/06 03:54:15;;;;;;;5.22;2.90;;;;;;;12.33;48.47;100707.56;5072298;28;20480;-83
2022/10/06 03:56:41;;;;;;;4.63;3.00;;;;;;;12.47;48.51;100721.16;5072542;28;20025;-82
2022/10/06 03:59:09;;;;;;;4.28;3.50;;;;;;;12.62;48.17;100756.66;5072415;28;20016;-83
2022/10/06 04:01:36;;;;;;;5.13;3.30;;;;;;;12.17;48.60;100693.44;5070765;28;20576;-83
2022/10/06 04:04:03;;;;;;;3.85;3.35;;;;;;;12.37;48.52;100718.66;5072226;28;20518;-82
2022/10/06 04:06:31;;;;;;;3.90;3.47;;;;;;;12.55;48.98;100747.69;5072078;28;20113;-82
2022/10/06 04:08:57;;;;;;;4.00;3.15;;;;;;;11.60;48.78;100605.81;5072436;28;20029;-82
2022/10/06 04:11:28;;;;;;;5.28;3.40;;;;;;;12.47;48.93;100748.50;5072125;28;20024;-83
2022/10/06 04:13:57;;;;;;;4.28;3.40;;;;;;;12.58;48.38;100747.38;5070531;28;20021;-82
2022/10/06 04:16:34;;;;;;;6.07;3.72;;;;;;;12.41;48.72;100730.59;5072037;28;20107;-82
2022/10/06 04:19:02;;;;;;;5.25;3.88;;;;;;;11.96;48.64;100644.41;5070770;28;20433;-82
2022/10/06 04:21:29;;;;;;;6.82;3.90;;;;;;;12.59;48.51;100754.31;5071859;28;20021;-83
2022/10/06 04:23:56;;;;;;;7.38;4.63;;;;;;;12.60;48.50;100754.16;5069409;28;20531;-83
2022/10/06 04:26:23;;;;;;;8.82;5.43;;;;;;;12.37;48.86;100722.13;5070336;28;20086;-83
2022/10/06 04:28:49;;;;;;;9.88;6.00;;;;;;;12.71;48.78;100756.53;5071689;28;20029;-83
2022/10/06 04:31:21;;;;;;;8.90;5.60;;;;;;;12.08;48.85;100651.06;5071688;28;20028;-83
2022/10/06 04:33:47;;;;;;;;;;;;;;;12.65;49.69;100764.31;5070871;28;20024;-83
2022/10/06 04:36:16;;;;;;;13.77;6.80;;;;;;;12.83;48.65;100758.88;5071572;28;19909;-83
2022/10/06 04:38:41;;;;;;;11.73;7.20;;;;;;;12.30;48.35;100681.41;5070088;28;20024;-83
2022/10/06 04:41:11;;;;;;;12.57;6.50;;;;;;;12.07;48.94;100633.50;5070173;28;20031;-83
2022/10/06 04:43:37;;;;;;;10.93;7.05;;;;;;;12.75;48.52;100730.53;5071494;28;20099;-82
2022/10/06 04:46:03;;;;;;;11.52;7.70;;;;;;;12.99;48.19;100761.56;5071367;28;20107;-83
2022/10/06 04:48:29;;;;;;;12.48;7.72;;;;;;;13.03;48.47;100763.72;5071316;28;20060;-83
2022/10/06 04:50:57;;;;;;;17.90;7.38;;;;;;;13.09;48.20;100761.41;5080944;28;20028;-83
2022/10/06 04:53:23;;;;;;;10.20;7.50;;;;;;;12.97;48.47;100737.84;5088141;28;20036;-82
2022/10/06 04:56:04;;;;;;;10.98;6.53;;;;;;;13.16;48.67;100763.22;5090357;28;20016;-83
2022/10/06 04:58:39;;;;;;;14.00;7.07;;;;;;;13.02;48.35;100742.66;5090695;28;20082;-83
2022/10/06 05:01:17;;;;;;;10.40;7.03;;;;;;;12.65;48.17;100677.69;5091503;28;20532;-83
2022/10/06 05:03:44;;;;;;;10.50;6.32;;;;;;;13.08;48.15;100725.28;5091601;28;20032;-82
2022/10/06 05:06:16;;;;;;;9.20;5.53;;;;;;;13.40;47.68;100764.28;5091443;28;20024;-82
2022/10/06 05:08:42;;;;;;;8.60;5.25;;;;;;;13.09;47.69;100711.84;5091574;28;20414;-83
2022/10/06 05:11:10;;;;;;;7.88;5.57;;;;;;;13.49;47.69;100761.47;5090247;28;20089;-83
2022/10/06 05:13:37;;;;;;;7.63;4.93;;;;;;;12.99;47.69;100676.72;5090162;28;20514;-82
2022/10/06 05:16:05;;;;;;;10.27;5.80;;;;;;;13.54;47.36;100758.31;5091410;28;20500;-83
2022/10/06 05:18:32;;;;;;;12.15;6.47;;;;;;;13.50;47.78;100768.41;5090303;28;20504;-82
2022/10/06 05:21:04;;;;;;;10.00;6.93;;;;;;;13.48;47.66;100770.41;5089943;28;20031;-82
2022/10/06 05:23:32;;;;;;;12.07;7.65;;;;;;;13.39;47.71;100739.56;5091470;28;20020;-82
2022/10/06 05:25:58;;;;;;;8.68;6.95;;;;;;;13.60;47.26;100770.91;5091214;28;20100;-82
2022/10/06 05:28:26;;;;;;;12.55;7.85;;;;;;;13.64;47.19;100774.88;5091274;28;20020;-83
2022/10/06 05:30:57;;;;;;;10.30;6.97;;;;;;;13.72;47.20;100774.88;5091367;28;20024;-83
2022/10/06 05:33:24;;;;;;;9.77;7.57;;;;;;;13.51;47.33;100738.25;5091354;28;20028;-82
2022/10/06 05:35:55;;;;;;;8.38;6.43;;;;;;;13.79;47.04;100783.81;5094751;28;20043;-83
2022/10/06 05:38:21;;;;;;;13.82;7.28;;;;;;;13.52;47.28;100734.59;5095216;28;20023;-83
2022/10/06 05:40:46;;;;;;;12.73;7.53;;;;;;;13.68;46.93;100774.38;5095293;28;20566;-82
2022/10/06 05:43:12;;;;;;;18.90;8.43;;;;;;;13.10;46.57;100654.34;5093500;28;20556;-82
2022/10/06 05:45:37;;;;;;;16.02;8.68;;;;;;;13.18;46.41;100659.66;5094820;28;20095;-82
2022/10/06 05:48:03;;;;;;;24.55;10.82;;;;;;;13.59;46.45;100745.34;5075870;28;20021;-82
2022/10/06 05:50:28;;;;;;;21.15;9.63;;;;;;;13.73;46.57;100749.16;5074343;28;20125;-82
2022/10/06 05:52:54;;;;;;;14.32;10.75;;;;;;;13.84;46.20;100764.72;5090369;28;20031;-82
2022/10/06 05:55:19;;;;;;;18.55;10.27;;;;;;;13.87;46.22;100773.19;5078268;28;20024;-83
2022/10/06 05:57:45;;;;;;;14.75;8.95;;;;;;;13.57;46.35;100720.81;5073969;28;20063;-82
2022/10/06 06:00:11;;;;;;;14.00;9.35;;;;;;;13.27;46.19;100667.44;5073598;28;20081;-83
2022/10/06 06:02:36;;;;;;;14.18;9.75;;;;;;;13.35;46.14;100685.16;5079427;28;20036;-81
2022/10/06 06:05:02;;;;;;;18.73;8.85;;;;;;;13.44;45.90;100683.38;5087171;28;20406;-82
2022/10/06 06:07:27;;;;;;;21.70;8.95;;;;;;;13.50;46.08;100715.34;5102331;28;20020;-82
2022/10/06 06:09:52;;;;;;;15.88;9.20;;;;;;;13.73;46.23;100726.09;5103677;28;20743;-82
2022/10/06 06:12:18;;;;;;;15.30;10.82;;;;;;;13.55;46.37;100683.00;5084658;28;20106;-82
2022/10/06 06:17:30;;;;;;;10.70;7.68;;;;;;;14.09;45.97;100760.16;5076972;28;20085;-82
2022/10/06 06:19:56;;;;;;;10.85;7.18;;;;;;;14.39;45.84;100804.59;5080232;28;20020;-82
2022/10/06 06:22:21;;;;;;;11.30;7.00;;;;;;;14.13;46.03;100759.69;5092292;28;20107;-82
2022/10/06 06:24:47;;;;;;;13.50;6.32;;;;;;;13.80;45.67;100686.41;5080039;28;20036;-82
2022/10/06 06:27:12;;;;;;;11.98;6.15;;;;;;;14.22;45.74;100739.22;5080892;28;20675;-82
2022/10/06 06:29:38;;;;;;;7.95;5.47;;;;;;;14.02;46.06;100693.63;5092221;28;20110;-82
2022/10/06 06:32:05;;;;;;;4.60;3.80;;;;;;;14.30;46.12;100733.88;5075345;28;20103;-83
2022/10/06 06:34:30;;;;;;;7.53;4.82;;;;;;;14.54;46.20;100754.22;5075427;28;20028;-82
2022/10/06 06:36:57;;;;;;;5.32;4.07;;;;;;;14.90;46.20;100810.38;5094666;28;20504;-82
2022/10/06 06:39:24;;;;;;;5.57;3.53;;;;;;;14.60;46.16;100774.78;5092643;28;20020;-82
2022/10/06 06:41:49;;;;;;;11.68;7.28;;;;;;;14.28;46.14;100710.16;5079177;28;20032;-81
2022/10/06 06:44:16;;;;;;;6.63;4.57;;;;;;;14.98;46.44;100812.16;5082704;28;20082;-82
2022/10/06 06:46:46;;;;;;;5.45;3.90;;;;;;;14.39;46.14;100721.38;5089319;28;20020;-82
2022/10/06 06:49:12;;;;;;;6.07;4.78;;;;;;;15.08;46.23;100813.59;5072869;28;20028;-82
2022/10/06 06:51:40;;;;;;;5.20;4.25;;;;;;;14.83;46.04;100761.53;5075513;28;20405;-82
2022/10/06 06:54:07;;;;;;;6.80;3.85;;;;;;;14.44;45.95;100701.28;5081692;28;20048;-82
2022/10/06 06:56:37;;;;;;;5.78;3.80;;;;;;;14.56;46.32;100718.50;5074204;28;20505;-81
2022/10/06 06:59:09;;;;;;;4.95;3.65;;;;;;;14.96;46.20;100780.44;5074788;28;20020;-82
2022/10/06 07:01:34;;;;;;;;;;;;;;;15.12;46.41;100832.69;5080601;28;20079;-81
2022/10/06 07:04:00;;;;;;;4.47;3.97;;;;;;;14.69;46.10;100725.06;5082111;28;19947;-81
2022/10/06 07:06:27;;;;;;;5.40;4.53;;;;;;;15.25;45.65;100791.19;5074227;28;20537;-82
2022/10/06 07:08:53;;;;;;;5.00;4.50;;;;;;;15.25;45.80;100785.03;5087105;28;20073;-82
2022/10/06 07:11:34;;;;;;;6.10;3.67;;;;;;;15.61;45.94;100811.91;5093627;28;20024;-82
2022/10/06 07:14:03;;;;;;;4.88;3.40;;;;;;;15.70;45.64;100802.03;5084150;28;20552;-81
2022/10/06 07:25:05;;;;;;;7.90;5.53;;;;;;;15.53;45.09;100732.91;5085021;28;20027;-82
2022/10/06 07:27:40;;;;;;;3.47;3.17;;;;;;;16.03;44.78;100786.53;5093357;28;20052;-82
2022/10/06 07:30:33;;;;;;;7.05;5.75;;;;;;;16.12;44.87;100788.09;5104422;28;20119;-82
2022/10/06 07:32:59;;;;;;;6.47;5.20;;;;;;;16.12;44.25;100774.78;5110517;28;20028;-81
2022/10/06 07:35:25;;;;;;;3.33;2.92;;;;;;;16.30;44.20;100791.22;5104381;28;20106;-82
2022/10/06 07:37:54;;;;;;;2.70;2.50;;;;;;;16.37;43.78;100788.69;5091960;28;20461;-81
2022/10/06 07:40:19;;;;;;;4.97;3.15;;;;;;;15.99;43.78;100738.13;5087518;28;20047;-81
2022/10/06 07:42:47;;;;;;;3.67;3.03;;;;;;;14.96;43.53;100541.09;5074724;28;20062;-81
2022/10/06 07:45:37;;;;;;;14.30;3.58;;;;;;;16.59;43.34;100782.41;5073817;28;20047;-81
2022/10/06 07:48:13;;;;;;;2.78;2.53;;;;;;;16.63;42.98;100783.69;5078337;28;20693;-81
2022/10/06 07:50:40;;;;;;;3.55;2.10;;;;;;;15.99;42.73;100660.06;5076837;28;20052;-82
2022/10/06 07:53:09;;;;;;;3.90;2.78;;;;;;;16.81;43.01;100775.28;5081560;28;20028;-82
2022/10/06 07:55:39;;;;;;;3.25;2.17;;;;;;;16.92;42.73;100777.47;5075580;28;20076;-82
2022/10/06 07:58:19;;;;;;;3.38;2.30;;;;;;;16.86;42.41;100772.06;5085514;28;20020;-82
2022/10/06 08:00:47;;;;;;;2.92;2.45;;;;;;;16.37;42.45;100666.06;5088383;28;20048;-82
2022/10/06 08:03:17;;;;;;;3.13;2.40;;;;;;;17.14;42.15;100771.16;5081367;28;20740;-82
2022/10/06 08:05:46;;;;;;;2.80;2.10;;;;;;;16.43;41.71;100642.16;5104819;28;20046;-82
2022/10/06 08:08:13;;;;;;;3.83;2.50;;;;;;;16.71;41.49;100662.75;5092238;28;20030;-82
2022/10/06 08:10:40;;;;;;;2.90;2.30;;;;;;;16.92;41.20;100689.44;5085218;28;20012;-81
2022/10/06 08:13:06;;;;;;;3.35;2.90;;;;;;;17.35;41.88;100764.97;5062634;28;22542;-82
2022/10/06 08:15:32;;;;;;;3.53;2.50;;;;;;;17.55;41.42;100757.13;5082943;28;20552;-82
2022/10/06 08:17:59;;;;;;;4.50;2.72;;;;;;;17.25;41.11;100689.72;5073191;28;20474;-81
2022/10/06 08:20:26;;;;;;;4.38;2.95;;;;;;;16.65;41.11;100602.16;5083115;28;20035;-82
2022/10/06 08:22:52;;;;;;;3.15;2.38;;;;;;;16.95;40.88;100605.50;5079498;28;20453;-81
2022/10/06 08:25:17;;;;;;;3.20;2.30;;;;;;;17.72;40.85;100723.78;5082751;28;20107;-81
2022/10/06 08:27:43;;;;;;;6.03;4.30;;;;;;;18.02;40.71;100767.16;5077320;28;20092;-82
2022/10/06 08:30:10;;;;;;;3.72;3.25;;;;;;;17.63;40.44;100668.84;5076568;28;20091;-81
2022/10/06 08:32:36;;;;;;;7.03;3.28;;;;;;;18.00;40.20;100723.78;5077061;28;20117;-81
2022/10/06 08:35:02;;;;;;;4.85;2.38;;;;;;;17.92;40.16;100702.56;5079050;28;20394;-81
2022/10/06 08:37:27;;;;;;;2.42;2.22;;;;;;;18.08;39.73;100715.59;5081038;28;20027;-81
2022/10/06 08:39:54;;;;;;;2.42;1.95;;;;;;;17.69;39.91;100652.06;5073181;28;20036;-80
2022/10/06 08:42:41;;;;;;;4.18;2.47;;;;;;;17.85;39.91;100658.94;5075728;28;20036;-80
2022/10/06 08:45:22;;;;;;;3.42;2.30;;;;;;;18.02;39.47;100668.28;5090100;28;20027;-82
2022/10/06 08:48:01;;;;;;;3.22;2.22;;;;;;;18.53;39.25;100732.00;5089875;28;20079;-81
2022/10/06 08:50:31;;;;;;;2.85;2.30;;;;;;;18.65;39.26;100732.31;5085624;28;20027;-80
2022/10/06 08:53:28;;;;;;;4.60;3.05;;;;;;;18.79;39.19;100736.66;5079443;28;20233;-82
2022/10/06 08:56:03;;;;;;;2.90;2.53;;;;;;;18.90;37.77;100733.41;5088877;28;20020;-81
2022/10/06 08:58:45;;;;;;;3.30;2.03;;;;;;;18.46;38.09;100642.09;5075637;28;20027;-81
2022/10/06 09:01:15;;;;;;;5.90;3.50;;;;;;;19.07;38.15;100724.97;5089663;28;20040;-81
2022/10/06 09:03:47;;;;;;;8.27;5.47;;;;;;;18.75;38.37;100657.84;5081782;28;20020;-81
2022/10/06 09:06:30;;;;;;;4.63;3.50;;;;;;;19.17;37.92;100693.28;5084912;28;20277;-81
2022/10/06 09:09:05;;;;;;;4.63;2.17;;;;;;;19.00;37.49;100658.88;5083130;28;20042;-82
2022/10/06 09:11:36;;;;;;;5.20;2.03;;;;;;;19.53;37.04;100708.97;5080507;28;20504;-81
2022/10/06 09:14:16;;;;;;;2.97;2.15;;;;;;;19.73;37.22;100733.03;5084101;28;20436;-82
2022/10/06 09:16:47;;;;;;;5.32;3.10;;;;;;;19.31;36.77;100636.81;5080298;28;20051;-82
2022/10/06 09:19:52;;;;;;;2.92;2.00;;;;;;;19.85;36.72;100697.34;5071355;28;20082;-82
2022/10/06 09:22:20;;;;;;;2.30;1.85;;;;;;;19.77;36.30;100653.88;5048190;28;20128;-82
2022/10/06 09:24:49;;;;;;;4.45;2.00;;;;;;;19.73;36.24;100640.06;5068283;28;20041;-82
2022/10/06 09:27:42;;;;;;;4.53;2.05;;;;;;;20.27;36.02;100706.72;5078082;28;20139;-81
2022/10/06 09:30:12;;;;;;;4.70;2.10;;;;;;;19.83;35.67;100624.38;5069340;28;20039;-82
2022/10/06 09:32:45;;;;;;;5.63;1.88;;;;;;;19.80;35.56;100606.03;5080557;28;20032;-81
2022/10/06 09:35:21;;;;;;;2.72;2.47;;;;;;;20.50;35.30;100702.72;5073266;28;20038;-81
2022/10/06 09:37:56;;;;;;;5.30;3.75;;;;;;;20.37;35.30;100657.97;5072280;28;20027;-81
2022/10/06 09:40:47;;;;;;;2.42;1.92;;;;;;;20.76;34.33;100685.63;5071252;28;20031;-81
2022/10/06 09:43:24;;;;;;;4.60;2.15;;;;;;;20.54;34.97;100643.03;5071377;28;20031;-81
2022/10/06 09:46:10;;;;;;;2.85;2.22;;;;;;;20.50;34.75;100625.72;5071430;28;20519;-80
2022/10/06 09:48:38;;;;;;;2.53;1.60;;;;;;;20.41;34.20;100572.56;5070677;28;20036;-81
2022/10/06 09:51:15;;;;;;;3.80;1.75;;;;;;;21.00;34.20;100654.50;5084324;28;20099;-81
2022/10/06 09:53:43;;;;;;;5.22;2.13;;;;;;;21.13;34.16;100679.38;5088939;28;20032;-81
2022/10/06 09:56:18;;;;;;;4.43;1.80;;;;;;;20.93;33.70;100633.09;5076553;28;20037;-80
2022/10/06 09:58:58;;;;;;;3.53;2.10;;;;;;;20.75;34.12;100579.31;5071914;28;20052;-81
2022/10/06 10:01:28;;;;;;;3.13;2.40;;;;;;;21.12;33.67;100625.91;5072632;28;20056;-82
2022/10/06 10:04:21;;;;;;;4.13;3.03;;;;;;;21.35;33.31;100634.16;5069711;28;20040;-80
2022/10/06 10:06:47;;;;;;;3.35;2.05;;;;;;;21.20;33.24;100602.25;5067539;28;20045;-81
2022/10/06 10:09:24;;;;;;;1.98;1.73;;;;;;;21.32;32.86;100578.19;5072975;28;20028;-82
2022/10/06 10:14:51;;;;;;;6.22;2.72;;;;;;;21.94;32.55;100623.81;5085606;28;20047;-82
2022/10/06 10:17:31;;;;;;;2.22;1.90;;;;;;;22.26;32.02;100662.13;5079236;28;20067;-81
2022/10/06 10:19:57;;;;;;;3.42;2.35;;;;;;;21.96;32.06;100590.28;5090983;28;20086;-82
2022/10/06 10:22:35;;;;;;;3.95;2.15;;;;;;;21.80;31.88;100555.94;5093450;28;20056;-82
2022/10/06 10:25:19;;;;;;;1.73;1.52;;;;;;;22.56;31.26;100646.00;5088051;28;20035;-82
2022/10/06 10:27:57;;;;;;;3.33;2.63;;;;;;;22.01;31.02;100566.22;5091072;28;20036;-82
2022/10/06 10:30:22;;;;;;;1.98;1.80;;;;;;;21.95;31.02;100536.72;5074228;28;20028;-82
2022/10/06 10:33:23;;;;;;;6.00;2.90;;;;;;;22.82;30.46;100635.66;5074238;28;20113;-81
2022/10/06 10:35:52;;;;;;;3.42;2.38;;;;;;;22.87;30.97;100623.38;5072954;28;20032;-82
2022/10/06 10:38:22;;;;;;;3.65;2.38;;;;;;;23.00;30.71;100632.06;5072848;28;20414;-82
2022/10/06 10:41:23;;;;;;;3.95;1.55;;;;;;;22.79;30.34;100567.97;5072660;28;20116;-80
2022/10/06 10:43:54;;;;;;;1.65;1.55;;;;;;;22.50;30.18;100516.69;5077746;28;20044;-81
2022/10/06 10:46:41;;;;;;;3.80;1.55;;;;;;;23.37;29.65;100605.72;5093781;28;20024;-82
2022/10/06 10:49:24;;;;;;;1.75;1.52;;;;;;;23.58;29.71;100617.78;5072785;28;20031;-82
2022/10/06 10:52:02;;;;;;;3.53;1.70;;;;;;;22.01;29.40;100396.78;5072465;28;20119;-80
2022/10/06 10:54:59;;;;;;;3.78;2.33;;;;;;;23.53;29.14;100576.41;5075307;28;20116;-82
2022/10/06 10:57:34;;;;;;;6.20;3.17;;;;;;;23.32;28.99;100511.28;5076040;28;20151;-82
2022/10/06 11:00:03;;;;;;;2.30;1.63;;;;;;;23.65;29.16;100564.56;5072882;28;20175;-82
2022/10/06 11:02:29;;;;;;;4.75;2.13;;;;;;;24.05;29.22;100593.41;5079083;28;20028;-81
2022/10/06 11:05:11;;;;;;;4.25;1.70;;;;;;;24.25;28.44;100609.97;5086480;28;20039;-81
2022/10/06 11:08:01;;;;;;;3.50;2.33;;;;;;;23.80;27.91;100530.91;5080392;28;20039;-80
2022/10/06 11:10:55;;;;;;;2.88;2.22;;;;;;;23.80;28.28;100530.91;5078952;28;20416;-79
2022/10/06 11:13:41;;;;;;;1.98;1.40;;;;;;;24.14;28.33;100586.56;5071986;28;20070;-80
2022/10/06 11:16:31;;;;;;;3.13;1.70;;;;;;;24.05;28.06;100579.91;5072889;28;20020;-81
2022/10/06 11:19:14;;;;;;;2.05;1.40;;;;;;;24.02;28.02;100567.72;5075019;28;20021;-82
2022/10/06 11:21:46;;;;;;;2.22;1.40;;;;;;;24.15;28.10;100571.19;5079189;28;20039;-80
2022/10/06 11:24:48;;;;;;;1.50;1.40;;;;;;;24.16;28.36;100565.56;5084066;28;20542;-81
2022/10/06 11:27:34;;;;;;;2.08;1.80;;;;;;;24.08;28.54;100569.47;5083344;28;20040;-82
2022/10/06 11:30:28;;;;;;;3.15;1.42;;;;;;;23.97;27.28;100551.44;5083280;28;21391;-81
2022/10/06 11:32:53;;;;;;;2.20;1.52;;;;;;;23.86;27.96;100565.00;5088119;28;20059;-81
2022/10/06 11:35:28;;;;;;;3.08;2.13;;;;;;;23.72;28.25;100549.06;5090379;28;20117;-81
2022/10/06 11:38:12;;;;;;;3.03;1.58;;;;;;;23.71;28.11;100557.41;5085201;28;20141;-81
2022/10/06 11:40:59;;;;;;;5.97;3.00;;;;;;;23.50;28.58;100552.63;5072537;28;20043;-81
2022/10/06 11:43:38;;;;;;;2.17;1.98;;;;;;;22.62;28.60;100409.00;5075853;28;20024;-81
2022/10/06 11:46:20;;;;;;;2.15;1.70;;;;;;;23.38;28.47;100536.47;5079919;28;20165;-82
2022/10/06 11:48:45;;;;;;;3.20;1.88;;;;;;;23.00;28.97;100510.03;5089321;28;20024;-82
2022/10/06 11:51:23;;;;;;;3.05;1.90;;;;;;;23.11;28.96;100533.47;5078118;28;20059;-81
2022/10/06 11:53:50;;;;;;;10.65;2.42;;;;;;;22.25;29.19;100397.66;5083317;28;20084;-82